Time;durP1;ratioP1;P1;durP2;ratioP2;P2;SDS_P1;SDS_P2;PMS_P1;PMS_P2;Temp;Humidity;BMP_temperature;BMP_pressure;BME280_temperature;BME280_humidity;BME280_pressure;Samples;Min_cycle;Max_cycle;Signal;HPM_P1;HPM_P2
2022/07/09 00:01:58;;;;;;;9.45;4.38;;;15.10;99.90;;;;;;4993907;28;20440;-59
2022/07/09 00:04:23;;;;;;;10.27;5.35;;;15.10;99.90;;;;;;4995637;28;20061;-57
2022/07/09 00:06:49;;;;;;;8.85;5.72;;;15.00;99.90;;;;;;4995177;28;20026;-57
2022/07/09 00:09:15;;;;;;;5.45;4.28;;;15.00;99.90;;;;;;4995289;28;20109;-58
2022/07/09 00:11:40;;;;;;;6.75;4.25;;;15.00;99.90;;;;;;4985281;28;20070;-58
2022/07/09 00:14:06;;;;;;;9.23;4.60;;;14.90;99.90;;;;;;4975835;28;20089;-58
2022/07/09 00:16:31;;;;;;;6.22;4.10;;;14.90;99.90;;;;;;4975427;28;20057;-57
2022/07/09 00:18:57;;;;;;;7.28;4.68;;;14.90;99.90;;;;;;4976764;28;20109;-57
2022/07/09 00:21:23;;;;;;;8.10;4.03;;;14.90;99.90;;;;;;4976160;28;20105;-60
2022/07/09 00:23:48;;;;;;;8.55;4.22;;;14.90;99.90;;;;;;4975646;28;20019;-59
2022/07/09 00:26:14;;;;;;;7.25;4.40;;;14.80;99.90;;;;;;4975623;28;20026;-58
2022/07/09 00:28:40;;;;;;;10.30;4.75;;;14.80;99.90;;;;;;4975474;28;20035;-57
2022/07/09 00:31:05;;;;;;;9.20;4.53;;;14.80;99.90;;;;;;4981321;28;20039;-60
2022/07/09 00:33:31;;;;;;;10.77;4.47;;;14.80;99.90;;;;;;4991301;28;20558;-57
2022/07/09 00:35:57;;;;;;;7.20;3.78;;;14.80;99.90;;;;;;4994734;28;20077;-52
2022/07/09 00:38:22;;;;;;;10.40;4.03;;;14.80;99.90;;;;;;4994679;28;20025;-56
2022/07/09 00:40:49;;;;;;;10.25;3.85;;;14.80;99.90;;;;;;4993223;28;20027;-58
2022/07/09 00:43:19;;;;;;;7.45;3.50;;;14.70;99.90;;;;;;4994650;28;20476;-59
2022/07/09 00:45:46;;;;;;;8.10;4.55;;;14.70;99.90;;;;;;4992757;28;20034;-59
2022/07/09 00:48:12;;;;;;;6.53;4.25;;;14.70;99.90;;;;;;4994181;28;20030;-58
2022/07/09 00:50:40;;;;;;;10.93;4.72;;;14.70;99.90;;;;;;4981344;28;20389;-59
2022/07/09 00:53:08;;;;;;;8.90;4.40;;;14.80;99.90;;;;;;4975211;28;20540;-59
2022/07/09 00:55:35;;;;;;;10.70;4.13;;;14.70;99.90;;;;;;4974832;28;20439;-57
2022/07/09 00:58:02;;;;;;;6.32;4.35;;;14.70;99.90;;;;;;4976017;28;20027;-59
2022/07/09 01:00:27;;;;;;;9.63;5.05;;;14.60;99.90;;;;;;4975115;28;20070;-58
2022/07/09 01:02:53;;;;;;;8.63;4.60;;;14.50;99.90;;;;;;4976030;28;20065;-59
2022/07/09 01:05:19;;;;;;;7.18;4.55;;;14.50;99.90;;;;;;4974690;28;20023;-56
2022/07/09 01:07:45;;;;;;;8.90;4.35;;;14.40;99.90;;;;;;4974712;28;20026;-59
2022/07/09 01:10:10;;;;;;;8.60;4.35;;;14.40;99.90;;;;;;4974992;28;20035;-57
2022/07/09 01:12:36;;;;;;;6.13;4.10;;;14.40;99.90;;;;;;4984035;28;20369;-57
2022/07/09 01:15:02;;;;;;;8.63;4.22;;;14.30;99.90;;;;;;4994208;28;20511;-59
2022/07/09 01:17:28;;;;;;;7.43;4.10;;;14.30;99.90;;;;;;4992338;28;20034;-59
2022/07/09 01:19:54;;;;;;;7.38;4.22;;;14.20;99.90;;;;;;4994322;28;20027;-54
2022/07/09 01:22:19;;;;;;;9.25;5.05;;;14.30;99.90;;;;;;4994037;28;20018;-55
2022/07/09 01:24:45;;;;;;;8.27;4.88;;;14.20;99.90;;;;;;4992332;28;20423;-57
2022/07/09 01:27:12;;;;;;;12.20;6.00;;;14.10;99.90;;;;;;4994050;28;20463;-58
2022/07/09 01:29:38;;;;;;;8.93;5.05;;;14.10;99.90;;;;;;4994040;28;20066;-59
2022/07/09 01:32:04;;;;;;;10.07;5.07;;;14.10;99.90;;;;;;4993917;28;20060;-57
2022/07/09 01:34:29;;;;;;;5.57;4.30;;;14.10;99.90;;;;;;4991992;28;20483;-58
2022/07/09 01:36:55;;;;;;;10.88;4.93;;;14.00;99.90;;;;;;4984975;28;20107;-60
2022/07/09 01:39:20;;;;;;;9.35;5.03;;;14.00;99.90;;;;;;4974292;28;20034;-60
2022/07/09 01:41:46;;;;;;;8.68;5.22;;;14.00;99.90;;;;;;4974371;28;20028;-60
2022/07/09 01:44:12;;;;;;;8.30;4.97;;;14.00;99.90;;;;;;4974309;28;20023;-59
2022/07/09 01:46:37;;;;;;;8.07;5.07;;;13.90;99.90;;;;;;4978011;28;20026;-60
2022/07/09 01:49:04;;;;;;;8.63;4.97;;;13.90;99.90;;;;;;4974019;28;20039;-58
2022/07/09 01:51:29;;;;;;;5.60;4.57;;;13.90;99.90;;;;;;4974035;28;20033;-59
2022/07/09 01:53:55;;;;;;;7.72;4.55;;;13.90;99.90;;;;;;4974279;28;20026;-58
2022/07/09 01:56:20;;;;;;;7.38;4.50;;;13.90;99.90;;;;;;4974889;28;20515;-59
2022/07/09 01:58:46;;;;;;;11.50;5.00;;;13.90;99.90;;;;;;4973312;28;20019;-57
2022/07/09 02:01:12;;;;;;;14.40;4.88;;;13.90;99.90;;;;;;4973953;28;20477;-59
2022/07/09 02:03:38;;;;;;;7.50;4.72;;;13.90;99.90;;;;;;4973826;28;20026;-59
2022/07/09 02:06:04;;;;;;;7.40;5.07;;;13.90;99.90;;;;;;4973607;28;20073;-58
2022/07/09 02:08:30;;;;;;;9.35;4.38;;;13.90;99.90;;;;;;4986798;28;20113;-58
2022/07/09 02:10:56;;;;;;;8.75;4.68;;;13.80;99.90;;;;;;4993240;28;20611;-59
2022/07/09 02:13:22;;;;;;;10.10;4.80;;;13.80;99.90;;;;;;4993176;28;20030;-59
2022/07/09 02:15:48;;;;;;;7.10;4.43;;;13.80;99.90;;;;;;4993140;28;20025;-59
2022/07/09 02:18:13;;;;;;;7.93;5.07;;;13.80;99.90;;;;;;4992722;28;20403;-59
2022/07/09 02:20:39;;;;;;;12.70;6.28;;;13.80;99.90;;;;;;4993289;28;20018;-59
2022/07/09 02:23:05;;;;;;;8.52;5.07;;;13.70;99.90;;;;;;4974762;28;20065;-60
2022/07/09 02:25:30;;;;;;;9.63;4.90;;;13.70;99.90;;;;;;4973425;28;20031;-59
2022/07/09 02:27:56;;;;;;;8.57;5.55;;;13.70;99.90;;;;;;4973298;28;20081;-59
2022/07/09 02:30:21;;;;;;;9.55;5.18;;;13.70;99.90;;;;;;4973233;28;20126;-59
2022/07/09 02:32:47;;;;;;;8.43;5.50;;;13.70;99.90;;;;;;4973730;28;20038;-58
2022/07/09 02:35:13;;;;;;;7.20;5.38;;;13.70;99.90;;;;;;4973156;28;20449;-58
2022/07/09 02:37:38;;;;;;;7.75;5.85;;;13.70;99.90;;;;;;4974171;28;20404;-60
2022/07/09 02:40:05;;;;;;;8.57;5.53;;;13.70;99.90;;;;;;4973387;28;20109;-57
2022/07/09 02:42:31;;;;;;;10.30;5.75;;;13.70;99.90;;;;;;4973206;28;20098;-59
2022/07/09 02:44:56;;;;;;;12.05;6.05;;;13.70;99.90;;;;;;4973290;28;20497;-59
2022/07/09 02:47:22;;;;;;;11.38;6.57;;;13.80;99.90;;;;;;4973157;28;20062;-59
2022/07/09 02:49:48;;;;;;;11.00;6.10;;;13.80;99.90;;;;;;4973314;28;20031;-60
2022/07/09 02:52:13;;;;;;;7.03;5.35;;;13.80;99.90;;;;;;4973492;28;20015;-59
2022/07/09 02:54:39;;;;;;;7.63;5.93;;;13.80;99.90;;;;;;4974053;28;20026;-59
2022/07/09 02:57:05;;;;;;;10.88;5.70;;;13.70;99.90;;;;;;4973327;28;20023;-57
2022/07/09 02:59:30;;;;;;;11.18;5.20;;;13.70;99.90;;;;;;4972918;28;20564;-58
2022/07/09 03:01:56;;;;;;;8.27;5.32;;;13.70;99.90;;;;;;4974016;28;20105;-57
2022/07/09 03:04:21;;;;;;;8.80;5.93;;;13.70;99.90;;;;;;4973057;28;20113;-58
2022/07/09 03:06:48;;;;;;;9.38;6.65;;;13.70;99.90;;;;;;4972756;28;20035;-58
2022/07/09 03:09:14;;;;;;;10.02;5.95;;;13.70;99.90;;;;;;4972897;28;20468;-60
2022/07/09 03:11:40;;;;;;;7.95;5.05;;;13.70;99.90;;;;;;4992323;28;20030;-59
2022/07/09 03:14:05;;;;;;;7.93;5.13;;;13.70;99.90;;;;;;4996330;28;20114;-57
2022/07/09 03:16:31;;;;;;;8.85;5.60;;;13.70;99.90;;;;;;4989831;28;20057;-58
2022/07/09 03:18:57;;;;;;;7.72;6.00;;;13.70;99.90;;;;;;4989143;28;20177;-56
2022/07/09 03:21:22;;;;;;;12.13;5.15;;;13.60;99.90;;;;;;4996323;28;20022;-57
2022/07/09 03:23:48;;;;;;;8.25;5.63;;;13.60;99.90;;;;;;4996308;28;20030;-58
2022/07/09 03:26:14;;;;;;;11.85;6.13;;;13.60;99.90;;;;;;4995881;28;20114;-57
2022/07/09 03:28:39;;;;;;;10.55;5.30;;;13.70;99.90;;;;;;4994513;28;20044;-60
2022/07/09 03:31:05;;;;;;;7.95;5.63;;;13.80;99.90;;;;;;4995767;28;20054;-57
2022/07/09 03:33:30;;;;;;;8.43;4.95;;;13.80;99.90;;;;;;4996137;28;20034;-58
2022/07/09 03:35:56;;;;;;;11.05;5.88;;;13.80;99.90;;;;;;4994122;28;20038;-57
2022/07/09 03:38:23;;;;;;;10.32;5.68;;;13.80;99.90;;;;;;4995803;28;20129;-56
2022/07/09 03:40:49;;;;;;;7.85;5.22;;;13.90;99.90;;;;;;4995962;28;20022;-56
2022/07/09 03:43:15;;;;;;;5.60;4.82;;;14.00;99.90;;;;;;4995939;28;20030;-56
2022/07/09 03:45:40;;;;;;;9.32;4.60;;;14.00;99.90;;;;;;4995530;28;20022;-57
2022/07/09 03:48:06;;;;;;;8.55;5.57;;;14.00;99.90;;;;;;4995647;28;20027;-59
2022/07/09 03:50:32;;;;;;;12.68;5.40;;;14.10;99.90;;;;;;4979806;28;20069;-59
2022/07/09 03:52:58;;;;;;;7.63;5.50;;;14.10;99.90;;;;;;4976282;28;20034;-58
2022/07/09 03:55:23;;;;;;;11.27;5.07;;;14.20;99.90;;;;;;4975941;28;20058;-57
2022/07/09 03:57:49;;;;;;;10.07;4.85;;;14.20;99.90;;;;;;4976015;28;20023;-58
2022/07/09 04:00:15;;;;;;;6.80;4.30;;;14.20;99.90;;;;;;4976184;28;20062;-58
2022/07/09 04:02:41;;;;;;;6.93;4.47;;;14.20;99.90;;;;;;4976327;28;20077;-56
2022/07/09 04:05:08;;;;;;;9.52;4.63;;;14.20;99.90;;;;;;4975953;28;20307;-59
2022/07/09 04:07:34;;;;;;;8.25;4.60;;;14.30;99.90;;;;;;4976740;28;20030;-59
2022/07/09 04:10:00;;;;;;;7.05;4.30;;;14.30;99.90;;;;;;4976283;28;20038;-60
2022/07/09 04:12:25;;;;;;;7.25;4.10;;;14.30;99.90;;;;;;4976106;28;20026;-60
2022/07/09 04:14:51;;;;;;;5.95;4.15;;;14.30;99.90;;;;;;4975732;28;20031;-60
2022/07/09 04:17:16;;;;;;;9.30;5.20;;;14.30;99.90;;;;;;4975784;28;20031;-59
2022/07/09 04:19:42;;;;;;;12.20;4.88;;;14.40;99.90;;;;;;4977424;28;20435;-59
2022/07/09 04:22:08;;;;;;;11.48;5.45;;;14.40;99.90;;;;;;4994574;28;20026;-61
2022/07/09 04:24:33;;;;;;;11.98;4.90;;;14.40;99.90;;;;;;4994903;28;20026;-57
2022/07/09 04:26:59;;;;;;;7.85;4.35;;;14.50;99.90;;;;;;4995475;28;20034;-61
2022/07/09 04:29:24;;;;;;;8.75;4.38;;;14.60;99.90;;;;;;4994902;28;20026;-60
2022/07/09 04:31:50;;;;;;;6.88;3.60;;;14.60;99.90;;;;;;4994771;28;20023;-58
2022/07/09 04:34:16;;;;;;;6.40;4.60;;;14.60;99.90;;;;;;4995119;28;20023;-59
2022/07/09 04:36:41;;;;;;;9.43;4.57;;;14.70;99.90;;;;;;4993377;28;20101;-59
2022/07/09 04:39:07;;;;;;;5.80;3.47;;;14.70;99.90;;;;;;4994726;28;20038;-60
2022/07/09 04:41:33;;;;;;;7.47;3.95;;;14.80;99.90;;;;;;4994751;28;20018;-59
2022/07/09 04:43:59;;;;;;;7.50;3.63;;;14.90;99.90;;;;;;4995311;28;20088;-60
2022/07/09 04:46:26;;;;;;;8.23;4.63;;;14.90;99.90;;;;;;4994453;28;20023;-60
2022/07/09 04:48:52;;;;;;;5.65;3.40;;;15.00;99.90;;;;;;4994600;28;20030;-59
2022/07/09 04:51:19;;;;;;;6.97;3.72;;;15.10;99.90;;;;;;4994793;28;20033;-59
2022/07/09 04:53:44;;;;;;;10.48;4.93;;;15.20;99.90;;;;;;4992969;28;20030;-59
2022/07/09 04:56:10;;;;;;;6.55;3.53;;;15.20;99.90;;;;;;4994247;28;20096;-60
2022/07/09 04:58:37;;;;;;;10.38;4.65;;;15.30;99.90;;;;;;4994406;28;20101;-58
2022/07/09 05:01:03;;;;;;;7.18;3.63;;;15.30;99.90;;;;;;4990446;28;20034;-59
2022/07/09 05:03:28;;;;;;;8.88;3.95;;;15.40;99.90;;;;;;4976007;28;20085;-61
2022/07/09 05:05:54;;;;;;;5.53;3.85;;;15.50;99.90;;;;;;4974550;28;20027;-59
2022/07/09 05:08:20;;;;;;;9.25;4.32;;;15.60;99.90;;;;;;4974703;28;20128;-59
2022/07/09 05:10:45;;;;;;;9.88;4.03;;;15.50;99.90;;;;;;4975765;28;20045;-57
2022/07/09 05:13:11;;;;;;;7.60;4.18;;;15.60;99.90;;;;;;4974865;28;20027;-57
2022/07/09 05:15:36;;;;;;;5.47;3.40;;;15.70;99.90;;;;;;4974490;28;20031;-61
2022/07/09 05:18:03;;;;;;;6.45;3.65;;;16.20;99.90;;;;;;4974529;28;20031;-59
2022/07/09 05:20:29;;;;;;;10.35;3.15;;;16.60;99.90;;;;;;4974851;28;20062;-59
2022/07/09 05:22:54;;;;;;;5.53;3.22;;;16.70;99.90;;;;;;4974943;28;20105;-57
2022/07/09 05:25:20;;;;;;;4.38;2.83;;;16.80;99.90;;;;;;4975596;28;20125;-58
2022/07/09 05:27:47;;;;;;;4.07;2.85;;;16.80;99.90;;;;;;4984850;28;20058;-60
2022/07/09 05:30:15;;;;;;;6.57;3.58;;;16.90;99.90;;;;;;4993884;28;20022;-60
2022/07/09 05:32:41;;;;;;;6.45;3.95;;;16.70;99.90;;;;;;4993550;28;20026;-59
2022/07/09 05:35:07;;;;;;;6.95;3.20;;;16.70;99.90;;;;;;4992686;28;20481;-58
2022/07/09 05:37:34;;;;;;;3.85;2.70;;;17.30;99.90;;;;;;4993564;28;20399;-58
2022/07/09 05:40:05;;;;;;;7.25;2.58;;;18.60;99.90;;;;;;4992057;28;20061;-61
2022/07/09 05:42:31;;;;;;;5.57;2.42;;;20.00;99.90;;;;;;4992018;28;20078;-57
2022/07/09 05:44:57;;;;;;;5.53;2.25;;;20.80;99.90;;;;;;4988912;28;20030;-60
2022/07/09 05:47:22;;;;;;;5.55;2.35;;;21.40;99.90;;;;;;4992075;28;20031;-60
2022/07/09 05:49:48;;;;;;;3.95;1.80;;;21.90;99.90;;;;;;4993413;28;20069;-58
2022/07/09 05:52:13;;;;;;;4.97;1.65;;;22.60;99.70;;;;;;4993528;28;20106;-59
2022/07/09 05:54:39;;;;;;;6.10;2.88;;;23.20;97.90;;;;;;4993223;28;20049;-60
2022/07/09 05:57:05;;;;;;;5.32;2.45;;;22.20;97.90;;;;;;4993394;28;20384;-59
2022/07/09 05:59:30;;;;;;;5.85;2.83;;;21.60;99.30;;;;;;4984515;28;20031;-59
2022/07/09 06:01:56;;;;;;;4.32;2.33;;;21.70;99.40;;;;;;4973920;28;20054;-60
2022/07/09 06:04:21;;;;;;;5.18;2.47;;;21.70;99.40;;;;;;4973828;28;20023;-57
2022/07/09 06:06:47;;;;;;;6.35;2.17;;;20.90;99.90;;;;;;4973573;28;20023;-58
2022/07/09 06:09:13;;;;;;;6.13;3.22;;;20.60;99.90;;;;;;4973622;28;20034;-58
2022/07/09 06:11:38;;;;;;;5.72;3.03;;;20.20;99.90;;;;;;4974852;28;20491;-57
2022/07/09 06:14:04;;;;;;;5.10;3.13;;;19.70;99.90;;;;;;4973591;28;20037;-58
2022/07/09 06:16:29;;;;;;;4.40;2.80;;;19.30;99.90;;;;;;4974283;28;20154;-59
2022/07/09 06:18:55;;;;;;;5.03;2.60;;;20.50;99.90;;;;;;4973437;28;20157;-59
2022/07/09 06:21:21;;;;;;;5.55;2.63;;;22.10;99.90;;;;;;4973599;28;20027;-59
2022/07/09 06:23:46;;;;;;;5.30;2.40;;;22.80;97.80;;;;;;4973565;28;20027;-60
2022/07/09 06:26:12;;;;;;;4.70;2.42;;;23.20;97.90;;;;;;4973453;28;20496;-59
2022/07/09 06:28:38;;;;;;;3.17;2.33;;;24.90;95.50;;;;;;4973617;28;20469;-61
2022/07/09 06:31:04;;;;;;;6.57;2.80;;;24.90;93.10;;;;;;4986964;28;20034;-58
2022/07/09 06:33:29;;;;;;;12.52;5.40;;;24.40;93.30;;;;;;4993006;28;20404;-60
2022/07/09 06:35:55;;;;;;;11.13;4.50;;;23.20;95.70;;;;;;4992835;28;20026;-60
2022/07/09 06:38:21;;;;;;;4.88;2.95;;;22.60;97.10;;;;;;4992452;28;20027;-59
2022/07/09 06:40:46;;;;;;;8.65;4.78;;;22.60;97.20;;;;;;4991234;28;20018;-59
2022/07/09 06:43:12;;;;;;;14.15;8.70;;;22.50;97.80;;;;;;4991489;28;20113;-58
2022/07/09 06:45:38;;;;;;;11.93;6.65;;;22.40;98.40;;;;;;4993075;28;20030;-59
2022/07/09 06:48:04;;;;;;;19.63;7.43;;;22.60;98.20;;;;;;4992460;28;20023;-60
2022/07/09 06:50:30;;;;;;;13.38;7.15;;;22.80;98.70;;;;;;4992602;28;20070;-59
2022/07/09 06:52:55;;;;;;;9.43;6.88;;;24.00;97.20;;;;;;4992644;28;20066;-62
2022/07/09 06:55:21;;;;;;;10.93;4.90;;;25.30;93.80;;;;;;4992261;28;20026;-60
2022/07/09 06:57:47;;;;;;;15.65;6.60;;;26.80;92.60;;;;;;4978283;28;20499;-59
2022/07/09 07:00:14;;;;;;;9.48;6.05;;;27.10;89.90;;;;;;4973233;28;20019;-60
2022/07/09 07:02:39;;;;;;;10.77;5.75;;;27.70;87.70;;;;;;4979790;28;20127;-62
2022/07/09 07:05:06;;;;;;;11.32;6.03;;;28.50;84.40;;;;;;4977799;28;20126;-62
2022/07/09 07:07:32;;;;;;;12.35;5.88;;;28.80;82.00;;;;;;4972648;28;20034;-61
2022/07/09 07:09:57;;;;;;;9.30;4.65;;;29.00;80.90;;;;;;4972897;28;20027;-63
2022/07/09 07:12:23;;;;;;;9.98;6.22;;;28.90;80.30;;;;;;4972997;28;20049;-62
2022/07/09 07:14:50;;;;;;;9.93;5.50;;;29.10;78.40;;;;;;4972619;28;20023;-62
2022/07/09 07:17:16;;;;;;;7.60;4.82;;;29.20;77.90;;;;;;4987047;28;20030;-62
2022/07/09 07:19:41;;;;;;;9.77;4.85;;;30.50;76.40;;;;;;4992131;28;20045;-62
2022/07/09 07:22:07;;;;;;;9.25;5.15;;;30.60;74.90;;;;;;4992515;28;20022;-62
2022/07/09 07:24:33;;;;;;;8.25;5.53;;;30.30;74.30;;;;;;4991980;28;20064;-61
2022/07/09 07:26:58;;;;;;;8.70;4.60;;;30.40;73.80;;;;;;4992309;28;20085;-62
2022/07/09 07:29:24;;;;;;;9.30;4.20;;;31.80;71.10;;;;;;4992215;28;20085;-62
2022/07/09 07:31:50;;;;;;;6.72;4.30;;;31.70;69.20;;;;;;4991954;28;20036;-62
2022/07/09 07:34:17;;;;;;;8.63;4.60;;;31.60;69.30;;;;;;4990726;28;20030;-63
2022/07/09 07:36:43;;;;;;;6.20;3.60;;;31.50;68.80;;;;;;4991669;28;20476;-62
2022/07/09 07:39:09;;;;;;;11.25;4.03;;;31.80;69.20;;;;;;4992103;28;20031;-62
2022/07/09 07:41:34;;;;;;;5.65;3.10;;;31.90;68.00;;;;;;4984063;28;20050;-63
2022/07/09 07:44:00;;;;;;;4.45;2.80;;;32.00;65.30;;;;;;4972508;28;20478;-62
2022/07/09 07:46:25;;;;;;;6.63;3.58;;;30.50;67.50;;;;;;4973258;28;20022;-62
2022/07/09 07:48:51;;;;;;;8.18;3.10;;;29.90;69.10;;;;;;4972792;28;20556;-62
2022/07/09 07:51:16;;;;;;;8.05;3.35;;;30.10;68.50;;;;;;4972525;28;20030;-61
2022/07/09 07:53:42;;;;;;;7.47;3.00;;;31.00;66.70;;;;;;4972519;28;20408;-62
2022/07/09 07:56:08;;;;;;;7.50;2.75;;;31.20;66.00;;;;;;4972468;28;20118;-62
2022/07/09 07:58:35;;;;;;;9.00;2.42;;;30.60;66.90;;;;;;4975500;28;20030;-62
2022/07/09 08:01:00;;;;;;;5.75;2.50;;;30.30;67.20;;;;;;4977075;28;20529;-62
2022/07/09 08:03:26;;;;;;;4.18;2.20;;;29.90;69.00;;;;;;4976031;28;20114;-63
2022/07/09 08:05:52;;;;;;;7.95;2.08;;;29.70;69.00;;;;;;4975877;28;20019;-61
2022/07/09 08:08:21;;;;;;;3.65;1.92;;;29.10;68.10;;;;;;4976747;28;20416;-60
2022/07/09 08:10:48;;;;;;;7.53;2.47;;;28.40;70.70;;;;;;4975809;28;20078;-56
2022/07/09 08:13:15;;;;;;;4.90;2.15;;;27.90;72.00;;;;;;4975875;28;20029;-60
2022/07/09 08:15:41;;;;;;;4.90;2.38;;;27.70;74.00;;;;;;4975725;28;20022;-60
2022/07/09 08:18:08;;;;;;;4.97;2.30;;;28.50;71.60;;;;;;4975614;28;20114;-61
2022/07/09 08:20:36;;;;;;;6.35;2.67;;;29.30;71.60;;;;;;4976475;28;20050;-62
2022/07/09 08:23:02;;;;;;;7.15;2.83;;;29.10;70.10;;;;;;4975942;28;20101;-62
2022/07/09 08:25:28;;;;;;;6.03;2.33;;;28.50;71.90;;;;;;4976367;28;20451;-60
2022/07/09 08:27:53;;;;;;;5.38;2.55;;;28.40;73.90;;;;;;4981397;28;20035;-62
2022/07/09 08:30:19;;;;;;;8.02;3.17;;;28.50;70.70;;;;;;4975098;28;20089;-58
2022/07/09 08:32:45;;;;;;;4.15;2.30;;;27.90;72.60;;;;;;4975774;28;20034;-61
2022/07/09 08:35:11;;;;;;;5.43;2.55;;;27.50;73.80;;;;;;4976296;28;20037;-61
2022/07/09 08:37:37;;;;;;;5.32;2.47;;;27.30;74.70;;;;;;4976297;28;20064;-60
2022/07/09 08:40:02;;;;;;;5.45;2.67;;;27.20;74.20;;;;;;4975418;28;20034;-62
2022/07/09 08:42:28;;;;;;;6.43;2.38;;;27.10;75.20;;;;;;4975455;28;20101;-61
2022/07/09 08:44:54;;;;;;;6.22;2.17;;;26.80;76.00;;;;;;4975037;28;20038;-59
2022/07/09 08:47:21;;;;;;;4.10;2.28;;;26.90;76.30;;;;;;4975350;28;20031;-62
2022/07/09 08:49:48;;;;;;;5.47;2.00;;;27.20;75.40;;;;;;4976339;28;20041;-62
2022/07/09 08:52:15;;;;;;;6.00;2.78;;;28.20;74.80;;;;;;4975317;28;20019;-62
2022/07/09 08:54:43;;;;;;;4.53;2.08;;;28.20;74.10;;;;;;4975340;28;20037;-61
2022/07/09 08:57:09;;;;;;;4.97;1.88;;;28.40;72.40;;;;;;4975006;28;20019;-61
2022/07/09 08:59:35;;;;;;;2.03;1.33;;;28.70;73.60;;;;;;4974954;28;20033;-61
2022/07/09 09:02:05;;;;;;;4.38;1.50;;;28.80;69.80;;;;;;4976781;28;20472;-61
2022/07/09 09:04:34;;;;;;;3.53;1.80;;;28.90;69.40;;;;;;4994315;28;20040;-56
2022/07/09 09:07:00;;;;;;;4.43;1.60;;;29.20;68.80;;;;;;4994427;28;20040;-60
2022/07/09 09:09:25;;;;;;;4.50;1.38;;;29.40;68.70;;;;;;4994626;28;20041;-61
2022/07/09 09:11:52;;;;;;;3.65;1.40;;;29.10;68.70;;;;;;4994321;28;20030;-62
2022/07/09 09:14:22;;;;;;;3.13;1.52;;;28.50;70.00;;;;;;4994209;28;20030;-62
2022/07/09 09:16:47;;;;;;;2.58;1.55;;;28.40;69.20;;;;;;4992559;28;20039;-62
2022/07/09 09:19:13;;;;;;;7.25;1.80;;;29.10;70.30;;;;;;4994101;28;20118;-62
2022/07/09 09:21:39;;;;;;;2.55;1.38;;;29.20;68.30;;;;;;4994400;28;20036;-62
2022/07/09 09:24:05;;;;;;;3.85;1.60;;;29.40;70.70;;;;;;4994097;28;20022;-62
2022/07/09 09:26:33;;;;;;;3.72;1.63;;;30.20;68.50;;;;;;4993730;28;20068;-61
2022/07/09 09:29:01;;;;;;;2.58;1.58;;;29.40;68.00;;;;;;4994450;28;20323;-61
2022/07/09 09:31:35;;;;;;;5.28;1.80;;;29.10;69.40;;;;;;4991828;28;20504;-62
2022/07/09 09:34:06;;;;;;;5.57;1.70;;;29.20;68.90;;;;;;4993910;28;20022;-62
2022/07/09 09:36:36;;;;;;;5.93;1.80;;;29.30;69.80;;;;;;4993442;28;20507;-61
2022/07/09 09:39:22;;;;;;;2.78;1.70;;;29.80;69.30;;;;;;4986026;28;20038;-61
2022/07/09 09:41:48;;;;;;;2.50;1.58;;;30.30;67.40;;;;;;4974383;28;20399;-63
2022/07/09 09:44:40;;;;;;;5.03;1.80;;;30.90;67.00;;;;;;4975389;28;20050;-62
2022/07/09 09:47:07;;;;;;;4.43;1.65;;;31.40;64.20;;;;;;4974036;28;20400;-61
2022/07/09 09:49:34;;;;;;;3.70;1.60;;;30.90;65.20;;;;;;4974333;28;20400;-62
2022/07/09 09:52:05;;;;;;;3.00;2.03;;;31.10;66.40;;;;;;4974121;28;20433;-61
2022/07/09 09:54:38;;;;;;;3.47;1.73;;;31.40;63.60;;;;;;4974176;28;20413;-60
2022/07/09 09:57:09;;;;;;;3.97;1.67;;;31.60;63.60;;;;;;4974186;28;20393;-62
2022/07/09 09:59:41;;;;;;;4.28;1.80;;;31.40;64.30;;;;;;4987670;28;20085;-62
2022/07/09 10:02:09;;;;;;;3.13;1.85;;;31.10;64.10;;;;;;4993374;28;20046;-62
2022/07/09 10:04:41;;;;;;;9.68;2.45;;;30.80;67.30;;;;;;4993310;28;20068;-62
2022/07/09 10:07:08;;;;;;;3.53;2.13;;;30.30;65.00;;;;;;4993261;28;20054;-62
2022/07/09 10:09:34;;;;;;;3.15;1.70;;;30.50;64.30;;;;;;4993090;28;20069;-61
2022/07/09 10:12:00;;;;;;;5.28;2.15;;;30.60;65.30;;;;;;4991651;28;20535;-62
2022/07/09 10:14:33;;;;;;;4.38;2.15;;;30.30;64.00;;;;;;4975941;28;20035;-62
2022/07/09 10:17:15;;;;;;;5.18;2.00;;;30.00;65.00;;;;;;4973629;28;20030;-60
2022/07/09 10:20:01;;;;;;;4.13;2.00;;;30.10;65.90;;;;;;4973301;28;20034;-61
2022/07/09 10:22:44;;;;;;;1.85;1.65;;;30.10;64.90;;;;;;4973575;28;20030;-59
2022/07/09 10:25:12;;;;;;;1.92;1.50;;;29.90;65.50;;;;;;4978833;28;20033;-61
2022/07/09 10:27:48;;;;;;;2.60;1.33;;;29.30;64.80;;;;;;4993036;28;20037;-60
2022/07/09 10:30:24;;;;;;;2.83;1.50;;;29.00;66.20;;;;;;4992994;28;20073;-59
2022/07/09 10:33:12;;;;;;;2.40;1.73;;;29.10;66.20;;;;;;4993159;28;20080;-61
2022/07/09 10:35:45;;;;;;;3.67;1.30;;;28.80;69.60;;;;;;4992633;28;20109;-59
2022/07/09 10:38:12;;;;;;;2.30;1.63;;;28.80;68.60;;;;;;4992581;28;20080;-61
2022/07/09 10:40:46;;;;;;;4.72;1.80;;;28.70;67.50;;;;;;4991882;28;20056;-61
2022/07/09 10:43:13;;;;;;;3.05;1.45;;;28.00;67.60;;;;;;4973318;28;20033;-62
2022/07/09 10:45:45;;;;;;;2.13;1.30;;;27.90;70.40;;;;;;4974243;28;20030;-61
2022/07/09 10:48:13;;;;;;;3.70;1.20;;;28.30;68.10;;;;;;4973075;28;20489;-60
2022/07/09 10:50:41;;;;;;;2.20;1.20;;;28.30;68.10;;;;;;4974121;28;20069;-59
2022/07/09 10:53:07;;;;;;;5.25;1.50;;;28.10;67.40;;;;;;4973230;28;20129;-61
2022/07/09 10:55:33;;;;;;;2.38;1.27;;;28.60;69.20;;;;;;4973017;28;20031;-62
2022/07/09 10:57:59;;;;;;;3.65;1.40;;;28.70;69.20;;;;;;4972820;28;20042;-61
2022/07/09 11:00:26;;;;;;;2.88;1.45;;;28.70;67.80;;;;;;4973189;28;20054;-61
2022/07/09 11:03:05;;;;;;;3.17;1.55;;;28.30;68.00;;;;;;4974022;28;20504;-60
2022/07/09 11:05:44;;;;;;;2.20;1.10;;;28.20;67.50;;;;;;4973026;28;20033;-61
2022/07/09 11:08:10;;;;;;;4.30;1.77;;;28.70;68.50;;;;;;4972833;28;20456;-62
2022/07/09 11:10:37;;;;;;;3.95;1.45;;;29.20;67.00;;;;;;4973225;28;20031;-61
2022/07/09 11:13:08;;;;;;;1.92;1.17;;;29.00;66.90;;;;;;4973026;28;20085;-60
2022/07/09 11:15:35;;;;;;;5.18;2.00;;;28.80;68.10;;;;;;4973381;28;20027;-61
2022/07/09 11:18:06;;;;;;;4.03;1.65;;;28.40;68.50;;;;;;4977380;28;20033;-61
2022/07/09 11:20:37;;;;;;;2.55;1.70;;;27.40;69.00;;;;;;4992291;28;20097;-61
2022/07/09 11:23:02;;;;;;;3.10;1.40;;;26.80;71.10;;;;;;4990594;28;20018;-62
2022/07/09 11:25:28;;;;;;;3.08;1.70;;;26.80;70.90;;;;;;4992047;28;20026;-61
2022/07/09 11:27:56;;;;;;;3.70;1.90;;;27.10;69.90;;;;;;4990717;28;20361;-59
2022/07/09 11:30:22;;;;;;;2.30;1.20;;;27.60;69.40;;;;;;4991746;28;20027;-62
2022/07/09 11:32:48;;;;;;;10.38;2.65;;;28.00;70.80;;;;;;4994521;28;20149;-60
2022/07/09 11:35:28;;;;;;;2.65;1.05;;;27.60;68.60;;;;;;4995947;28;20037;-61
2022/07/09 11:37:55;;;;;;;4.07;1.45;;;27.30;72.00;;;;;;4995842;28;20073;-60
2022/07/09 11:40:21;;;;;;;4.55;1.33;;;26.70;72.00;;;;;;4996227;28;20026;-60
2022/07/09 11:42:49;;;;;;;6.68;1.50;;;26.60;72.10;;;;;;4994247;28;20030;-61
2022/07/09 11:45:15;;;;;;;2.47;1.30;;;26.60;72.40;;;;;;4995642;28;20468;-59
2022/07/09 11:47:41;;;;;;;4.35;1.65;;;26.50;72.80;;;;;;4995747;28;20033;-61
2022/07/09 11:50:07;;;;;;;3.38;1.35;;;26.80;74.40;;;;;;4995963;28;20110;-61
2022/07/09 11:52:34;;;;;;;3.53;1.30;;;26.50;72.40;;;;;;4995855;28;20030;-61
2022/07/09 11:55:10;;;;;;;2.55;1.27;;;26.40;72.00;;;;;;4996060;28;20380;-58
2022/07/09 11:57:37;;;;;;;3.50;1.00;;;26.30;73.40;;;;;;4993972;28;20042;-59
2022/07/09 12:00:08;;;;;;;4.07;1.10;;;26.40;73.60;;;;;;4995733;28;20018;-60
2022/07/09 12:02:38;;;;;;;3.15;1.20;;;26.30;72.20;;;;;;4995689;28;20076;-59
2022/07/09 12:05:06;;;;;;;2.00;1.00;;;26.40;73.00;;;;;;4995343;28;20555;-59
2022/07/09 12:07:34;;;;;;;6.90;1.10;;;26.10;71.80;;;;;;4995556;28;20033;-59
2022/07/09 12:10:00;;;;;;;2.92;1.20;;;25.60;72.20;;;;;;4995979;28;20030;-58
2022/07/09 12:12:27;;;;;;;2.25;1.33;;;25.70;74.40;;;;;;4995131;28;20030;-59
2022/07/09 12:14:54;;;;;;;1.90;0.98;;;25.80;73.60;;;;;;4995232;28;20034;-60
2022/07/09 12:17:28;;;;;;;5.32;1.00;;;25.70;75.10;;;;;;4995320;28;20022;-58
2022/07/09 12:19:54;;;;;;;2.85;0.98;;;25.80;74.10;;;;;;4995672;28;20026;-60
2022/07/09 12:22:21;;;;;;;3.72;0.98;;;25.80;74.50;;;;;;4995160;28;20038;-59
2022/07/09 12:24:47;;;;;;;2.60;1.20;;;25.90;75.50;;;;;;4994961;28;20515;-58
2022/07/09 12:27:13;;;;;;;4.65;0.95;;;26.10;73.20;;;;;;4995099;28;20058;-60
2022/07/09 12:29:39;;;;;;;2.33;1.10;;;26.20;75.40;;;;;;4993373;28;20046;-59
2022/07/09 12:32:05;;;;;;;1.50;1.00;;;26.30;72.50;;;;;;4994644;28;20066;-61
2022/07/09 12:34:31;;;;;;;3.65;1.00;;;26.60;72.60;;;;;;4994688;28;20083;-58
2022/07/09 12:36:57;;;;;;;3.50;1.00;;;26.80;73.60;;;;;;4993574;28;20114;-58
2022/07/09 12:39:22;;;;;;;3.05;1.00;;;26.80;72.60;;;;;;4994685;28;20121;-58
2022/07/09 12:41:48;;;;;;;2.60;0.90;;;26.60;70.60;;;;;;4994879;28;20109;-58
2022/07/09 12:44:13;;;;;;;1.13;0.90;;;26.70;72.40;;;;;;4992629;28;20026;-58